Rick Gravenberch

Recruteur - Utrecht
24 Juil 2027
Samedi
Processus

Personnalité

Adaptabilité (20) Ambition (19) Controverse (10) Loyauté (20) Pression (19) Professionnalisme (14) Sportivité (8) Tempérament (16)

Profil

Style d'entraînement Démocratique
Diplôme Continental Pro
Détermination 11
Gestion des joueurs 13
Motivation 14
Discipline 9
Satisfaction professionnelle
93%
Fatigue
0%
Rôle Recruteur
Salaire 91.2K p/s
Contrat 14.03.2030

Performance

Comportement Bon
Efficacité de l'entraînement
39%
Développement des joueurs
40%
Prévention des blessures
45%
Mise en place tactique
40%

Événements récents

A évalué un joueur maintenant
A participé à une réunion de recrutement maintenant
A recommandé une cible de transfert maintenant
A recommandé une cible de transfert maintenant
A recommandé une cible de transfert maintenant
A recommandé une cible de transfert 7j
A recommandé une cible de transfert 7j
A présenté un dossier au conseil 7j

Suivi en cours

146
Joueur Club Statut Capacité Confiance Observé Dernière observation Dernier vote
Myron van Brederode KV Mechelen Actif 134 / 116 40% 3 19.07.2027 -
Adama Traoré Deportivo La Coruña Négociation 137 / 145 40% 2 19.07.2027 -
Matisse Samoise KAA Gent Actif 129 / 117 40% 3 12.07.2027 -
Gustavo Hamer Sheffield United Négociation 130 / 135 40% 1 12.07.2027 -
Chris Lokesa Waasland-Beveren Actif 123 / 120 40% 5 06.07.2027 -
Million Manhoef Stoke City Actif 129 / 121 40% 3 06.07.2027 -
Kilian Nikiéma ADO Den Haag Actif 122 / 115 40% 1 02.06.2027 -
Lorenzo Palmisani Frosinone Négociation 137 / 124 40% 1 02.06.2027 -
Konstantin Tyukavin Arsenal Négociation 132 / 133 66% 1 01.06.2027 Approuver
Patrick Berg Borussia Mönchengladbach Négociation 141 / 141 62% 1 01.06.2027 Approuver
Kota Tawaratsumida Gamba Osaka Négociation 133 / 136 66% 1 01.06.2027 Approuver
Igoh Ogbu Anderlecht Négociation 146 / 146 90% 1 01.06.2027 -
Mao Hosoya Manchester City Actif 134 / 135 67% 1 01.06.2027 Approuver
Batista Mendy Everton Négociation 141 / 141 68% 1 01.06.2027 -
Kilian Nikiéma ADO Den Haag Perdu 128 / 134 40% 1 01.06.2027 -
Radek Vítek Middlesbrough Actif 142 / 139 40% 1 01.06.2027 -
Tammy Abraham Aston Villa Actif 151 / 141 40% 1 31.05.2027 -
Zeidane Inoussa Swansea City Actif 125 / 123 40% 1 30.05.2027 -
Emile Smith Rowe Fulham Actif 162 / 144 40% 1 30.05.2027 -
Mitchel Bakker Rostov Actif 125 / 119 40% 4 28.05.2027 -
Matteo Dams Club Brugge Actif 129 / 139 40% 3 28.05.2027 -
Rumarn Burrell Queens Park Rangers Actif 124 / 118 40% 1 28.05.2027 -
Javi Ontiveros Cádiz Actif 133 / 128 40% 1 28.05.2027 -
Ronald Swansea City Actif 134 / 121 40% 2 26.05.2027 -
Jacob Ramsey Newcastle United Actif 147 / 155 40% 1 26.05.2027 -
Mike Eerdhuijzen KV Mechelen Actif 133 / 121 40% 2 25.05.2027 -
Aiham Ousou Charleroi Actif 124 / 130 40% 1 25.05.2027 -
Donny van de Beek Girona Actif 141 / 128 40% 1 25.05.2027 -
Brennan Johnson Everton Actif 149 / 145 40% 1 25.05.2027 -
Justin Kluivert Bournemouth Actif 155 / 157 40% 1 24.05.2027 -
Tuerto Sevilla Actif 153 / 142 40% 1 23.05.2027 -
Ilaix Moriba Celta Actif 158 / 154 40% 1 23.05.2027 -
Mats Wieffer Brighton Actif 155 / 157 40% 7 21.05.2027 -
Pedro de la Vega Leganés Actif 137 / 138 40% 1 21.05.2027 -
Zizo Al Ahly Actif 119 / 124 40% 3 19.05.2027 -
Thiago Almada Fiorentina Actif 153 / 143 40% 1 19.05.2027 -
Couhaib Driouech Celta Actif 139 / 136 40% 3 18.05.2027 -
David Larrubia Málaga Actif 124 / 128 40% 2 17.05.2027 -
Ez Abde Betis Actif 146 / 153 40% 2 16.05.2027 -
Andrés Martín Racing Santander Actif 140 / 130 40% 1 16.05.2027 -
Quinten Timber Crystal Palace Actif 147 / 147 40% 4 15.05.2027 -
Arnaut Danjuma Valencia Actif 151 / 149 40% 2 15.05.2027 -
Jeon Jin-Woo Sheffield Wednesday Actif 132 / 127 40% 1 14.05.2027 -
Max Johnston Derby County Actif 133 / 127 40% 1 14.05.2027 -
Aimé Omgba KAA Gent Actif 127 / 125 40% 4 13.05.2027 -
Kiernan Dewsbury-Hall Everton Actif 155 / 149 40% 1 13.05.2027 -
Enzo Loiodice KAA Gent Actif 129 / 135 40% 1 13.05.2027 -
Omar El Hilali Espanyol Actif 141 / 156 40% 1 12.05.2027 -
Patati AZ Actif 143 / 140 40% 2 10.05.2027 -
Kenny Tete Fulham Actif 151 / 133 40% 2 10.05.2027 -
Ismaïla Sarr Crystal Palace Actif 142 / 144 40% 1 10.05.2027 -
Cian Ashford Cardiff City Actif 112 / 117 40% 1 10.05.2027 -
Daan Heymans Racing Genk Actif 134 / 124 40% 4 09.05.2027 -
Thorgan Castagne KV Oostende Actif 134 / 114 40% 4 09.05.2027 -
Jayden Oosterwolde Fenerbahce Actif 140 / 123 40% 1 09.05.2027 -
Mikel Jauregizar Athletic Bilbao Actif 152 / 158 40% 2 06.05.2027 -
Yankuba Minteh Brighton Actif 162 / 158 40% 1 06.05.2027 -
Zinho Castagne KV Oostende Actif 127 / 130 40% 6 05.05.2027 -
Tristan Degreef Anderlecht Actif 120 / 121 40% 9 04.05.2027 -
Gaspar Gijón Actif 147 / 134 40% 1 04.05.2027 -
Kevin Fulham Actif 142 / 143 40% 3 03.05.2027 -
Félix Lemaréchal Club Brugge Actif 145 / 129 40% 4 02.05.2027 -
Ilias Chair Queens Park Rangers Actif 137 / 134 40% 1 02.05.2027 -
Osame Sahraoui LOSC Lille Actif 140 / 145 40% 2 29.04.2027 -
Roberto Fernández Braga Actif 146 / 141 40% 1 29.04.2027 -
Loum Tchaouna Coventry City Actif 146 / 141 40% 1 28.04.2027 -
Adriano Bertaccini Anderlecht Actif 135 / 122 40% 2 26.04.2027 -
Assane Diao Como Actif 147 / 147 40% 3 26.04.2027 -
Chemsdine Talbi Sunderland Actif 150 / 136 40% 1 24.04.2027 -
Carlos Álvarez Club America Actif 153 / 154 40% 1 24.04.2027 -
Carlos Romero Villarreal Actif 158 / 151 40% 1 22.04.2027 -
Harry Clarke Preston Actif 127 / 135 40% 1 22.04.2027 -
Relebohile Mofokeng Orlando Pirates Actif 114 / 134 40% 1 19.04.2027 -
Kevin Chadli Mouscron Actif 116 / 124 40% 2 18.04.2027 -
Milan van Ewijk Coventry City Actif 132 / 134 40% 3 18.04.2027 -
Zian Flemming Ipswich Town Actif 140 / 130 40% 1 15.04.2027 -
Sandro Las Palmas Actif 134 / 134 40% 1 15.04.2027 -
Yeremay Deportivo La Coruña Actif 144 / 138 40% 3 14.04.2027 -
Bill Antonio KV Mechelen Actif 119 / 117 40% 2 14.04.2027 -
Diego Lainez Tigres Actif 130 / 127 40% 1 09.04.2027 -
Julio Enciso Ipswich Town Actif 154 / 145 40% 1 06.04.2027 -
Freddie Potts Club Brugge Actif 135 / 125 40% 2 05.04.2027 -
Abdelkahar Kadri KAA Gent Actif 125 / 118 40% 5 05.04.2027 -
Joel Ordóñez OH Leuven Actif 130 / 135 40% 1 05.04.2027 -
Zico Buurmeester Leganés Actif 117 / 131 40% 1 04.04.2027 -
Sepp van den Berg Brentford Actif 146 / 139 40% 1 04.04.2027 -
Marcus Edwards Burnley Actif 149 / 140 40% 1 03.04.2027 -
Marley Aké Zulte Waregem Actif 128 / 118 40% 3 02.04.2027 -
Givairo Read Feyenoord Actif 150 / 158 40% 2 31.03.2027 -
Antony Betis Actif 158 / 161 40% 1 31.03.2027 -
Ilias Sebaoui Sint-Truiden Actif 134 / 119 40% 3 29.03.2027 -
Ian Maatsen Aston Villa Actif 161 / 148 40% 3 28.03.2027 -
Sergiño Dest PSV Actif 138 / 137 40% 2 25.03.2027 -
Pau Víctor Estrela da Amadora Actif 145 / 128 40% 1 25.03.2027 -
Steven Bergwijn Al-Ittihad Actif 166 / 152 40% 1 24.03.2027 -
Kevin Schade Brentford Actif 160 / 150 40% 2 23.03.2027 -
Joaquin Seys Club Brugge Actif 121 / 125 40% 3 22.03.2027 -
Yaimar Medina Racing Genk Actif 130 / 115 40% 4 22.03.2027 -
Demarai Gray Birmingham Actif 141 / 134 40% 1 22.03.2027 -
Donyell Malen AS Roma Actif 151 / 157 40% 2 19.03.2027 -
Tyrell Malacia Derby County Actif 129 / 128 40% 3 19.03.2027 -
Mikkel Damsgaard Brentford Actif 148 / 136 40% 1 19.03.2027 -
Thibaud Verlinden OH Leuven Actif 135 / 115 40% 1 19.03.2027 -
Ki-Jana Hoever Sparta Prague Actif 133 / 123 40% 1 19.03.2027 -
Sven Botman Newcastle United Actif 154 / 164 40% 2 12.03.2027 -
José Ángel Carmona Sevilla Actif 144 / 138 40% 1 08.03.2027 -
Botond Balogh Westerlo Actif 116 / 125 40% 1 06.03.2027 -
Marco Kana Anderlecht Actif 131 / 121 40% 1 04.03.2027 -
Amadou Onana Newcastle United Actif 153 / 155 40% 1 04.03.2027 -
Jordan Teze Monaco Actif 132 / 142 40% 1 03.03.2027 -
Ilay Camara Anderlecht Actif 140 / 127 40% 1 03.03.2027 -
Doğucan Haspolat Westerlo Actif 121 / 129 40% 4 23.02.2027 -
Adam Wharton Crystal Palace Actif 160 / 146 40% 1 10.02.2027 -
Julian Palacios Feyenoord Actif 140 / 164 40% 4 08.02.2027 -
Jorrel Hato Chelsea Actif 151 / 155 40% 1 08.02.2027 -
Matte Smets Racing Genk Actif 136 / 121 40% 1 04.02.2027 -
Oussama Targhalline Feyenoord Actif 133 / 137 40% 1 04.02.2027 -
Radja Meunier KV Oostende Actif 114 / 119 40% 1 30.12.2026 -
Robert-Jan Vanwesemael Dijon Actif 113 / 122 40% 2 27.12.2026 -
Jalen Hawkins ADO Den Haag Actif 119 / 117 40% 2 26.12.2026 -
Thomas Claes Zulte Waregem Actif 123 / 129 40% 1 24.12.2026 -
Jan Virgili Club Brugge Actif 122 / 130 40% 1 22.12.2026 -
Jakob Napoleon Romsaas Charleroi Actif 109 / 123 40% 2 21.12.2026 -
Yousef Salech Cardiff City Actif 124 / 133 40% 1 21.12.2026 -
Gonzalo Fulham Actif 135 / 148 40% 1 10.12.2026 -
Mario Stroeykens Anderlecht Actif 137 / 122 40% 2 08.12.2026 -
Luciano Valente Feyenoord Actif 149 / 133 40% 2 07.12.2026 -
Nacer Mignolet KV Oostende Actif 135 / 140 40% 3 05.12.2026 -
Kyriani Sabbe Club Brugge Actif 112 / 116 40% 1 05.12.2026 -
Isaac Romero Sevilla Actif 140 / 140 40% 1 28.11.2026 -
Marin Benko Zadar Actif 128 / 136 40% 1 28.11.2026 -
Maroan Sannadi Athletic Bilbao Actif 131 / 126 40% 1 25.11.2026 -
Ryotaro Araki Sint-Truiden Actif 120 / 113 40% 1 25.11.2026 -
Hugo Duro Valencia Actif 150 / 130 40% 1 24.11.2026 -
Nicolas Jackson Aston Villa Actif 144 / 139 40% 1 19.11.2026 -
Myron Boadu Twente Actif 121 / 139 40% 1 18.11.2026 -
Adnan Carrasco FC Nantes Actif 159 / 158 40% 2 08.11.2026 -
Lamine Cissé Peterborough United Actif 113 / 131 40% 1 08.11.2026 -
Henok Teklab OH Leuven Actif 108 / 110 40% 3 07.11.2026 -
Mexx Meerdink Feyenoord Actif 118 / 130 40% 2 06.11.2026 -
Léandre Kuavita Waasland-Beveren Actif 110 / 118 40% 1 21.10.2026 -
Liam Delap Nottingham Forest Actif 152 / 150 40% 1 16.10.2026 -
Kyan Vaesen OH Leuven Actif 114 / 103 40% 1 11.10.2026 -
Carlos Forbs Club Brugge Actif 138 / 126 40% 1 08.10.2026 -
Leonardo Lopes KAA Gent Actif 124 / 117 40% 1 19.09.2026 -
Tommy St. Jago KV Mechelen Actif 114 / 118 40% 1 13.09.2026 -